createdAt,value
2018-01-03T00:00:11.283Z,4.10
2018-01-03T00:02:39.559Z,4.10
2018-01-03T00:05:07.848Z,4.10
2018-01-03T00:07:35.349Z,4.10
2018-01-03T00:10:02.861Z,4.10
2018-01-03T00:12:30.334Z,4.20
2018-01-03T00:14:58.581Z,4.10
2018-01-03T00:17:26.854Z,4.10
2018-01-03T00:19:55.104Z,4.10
2018-01-03T00:22:22.598Z,4.10
2018-01-03T00:24:50.131Z,4.20
2018-01-03T00:27:17.634Z,4.20
2018-01-03T00:29:45.141Z,4.20
2018-01-03T00:32:13.363Z,4.20
2018-01-03T00:34:40.860Z,4.10
2018-01-03T00:37:08.414Z,4.20
2018-01-03T00:39:35.902Z,4.20
2018-01-03T00:42:03.506Z,4.20
2018-01-03T00:44:30.972Z,4.20
2018-01-03T00:46:58.444Z,4.30
2018-01-03T00:49:25.958Z,4.20
2018-01-03T00:51:54.236Z,4.20
2018-01-03T00:54:21.754Z,4.20
2018-01-03T00:56:49.266Z,4.30
2018-01-03T00:59:16.754Z,4.20
2018-01-03T01:01:44.219Z,4.30
2018-01-03T01:04:11.704Z,4.20
2018-01-03T01:06:39.184Z,4.30
2018-01-03T01:09:06.636Z,4.20
2018-01-03T01:11:34.128Z,4.30
2018-01-03T01:14:01.604Z,4.30
2018-01-03T01:16:29.083Z,4.30
2018-01-03T01:18:56.555Z,4.30
2018-01-03T01:21:24.823Z,4.30
2018-01-03T01:23:52.292Z,4.30
2018-01-03T01:26:20.531Z,4.40
2018-01-03T01:28:48.763Z,4.40
2018-01-03T01:31:16.235Z,4.40
2018-01-03T01:33:43.724Z,4.40
2018-01-03T01:36:11.208Z,4.40
2018-01-03T01:38:40.970Z,4.40
2018-01-03T01:41:08.455Z,4.40
2018-01-03T01:43:35.928Z,4.40
2018-01-03T01:46:03.455Z,4.50
2018-01-03T01:48:30.938Z,4.50
2018-01-03T01:50:58.408Z,4.50
2018-01-03T01:53:25.888Z,4.50
2018-01-03T01:55:53.368Z,4.50
2018-01-03T01:58:20.857Z,4.50
2018-01-03T02:00:48.328Z,4.50
2018-01-03T02:03:15.821Z,4.50
2018-01-03T02:05:43.281Z,4.60
2018-01-03T02:08:10.761Z,4.60
2018-01-03T02:10:38.236Z,4.60
2018-01-03T02:13:05.710Z,4.70
2018-01-03T02:15:34.692Z,4.70
2018-01-03T02:18:02.168Z,4.70
2018-01-03T02:20:30.420Z,4.70
2018-01-03T02:22:58.669Z,4.70
2018-01-03T02:25:26.153Z,4.70
2018-01-03T02:27:53.754Z,4.70
2018-01-03T02:30:21.994Z,4.80
2018-01-03T02:32:49.472Z,4.80
2018-01-03T02:35:16.950Z,4.90
2018-01-03T02:37:45.224Z,4.90
2018-01-03T02:40:13.463Z,4.90
2018-01-03T02:42:40.990Z,4.90
2018-01-03T02:45:08.466Z,4.90
2018-01-03T02:47:35.950Z,4.90
2018-01-03T02:50:03.420Z,4.90
2018-01-03T02:52:31.646Z,4.90
2018-01-03T02:54:59.143Z,4.90
2018-01-03T02:57:28.136Z,5.00
2018-01-03T02:59:55.612Z,5.00
2018-01-03T03:02:23.840Z,5.00
2018-01-03T03:04:51.345Z,5.00
2018-01-03T03:07:19.584Z,5.10
2018-01-03T03:09:47.055Z,5.10
2018-01-03T03:12:14.532Z,5.10
2018-01-03T03:14:42.784Z,5.10
2018-01-03T03:17:10.268Z,5.00
2018-01-03T03:19:38.504Z,5.20
2018-01-03T03:22:06.018Z,5.20
2018-01-03T03:24:34.252Z,5.20
2018-01-03T03:27:01.735Z,5.20
2018-01-03T03:29:29.981Z,5.20
2018-01-03T03:31:57.457Z,5.20
2018-01-03T03:34:24.964Z,5.30
2018-01-03T03:36:52.463Z,5.30
2018-01-03T03:42:13.395Z,5.40
2018-01-03T03:44:40.874Z,5.50
2018-01-03T03:47:08.353Z,5.60
2018-01-03T03:49:35.840Z,5.60
2018-01-03T03:52:03.320Z,5.70
2018-01-03T03:54:30.818Z,5.70
2018-01-03T03:56:59.056Z,6.10
2018-01-03T03:59:26.528Z,6.10
2018-01-03T04:01:54.763Z,6.10
2018-01-03T04:04:22.252Z,6.00
2018-01-03T04:06:49.753Z,6.10
2018-01-03T04:09:17.245Z,6.10
2018-01-03T04:11:44.728Z,6.30
2018-01-03T04:14:12.196Z,6.40
2018-01-03T04:16:40.441Z,6.50
2018-01-03T04:19:07.920Z,6.50
2018-01-03T04:21:35.387Z,6.50
2018-01-03T04:24:03.651Z,6.60
2018-01-03T04:26:31.136Z,6.60
2018-01-03T04:28:58.627Z,6.70
2018-01-03T04:31:26.117Z,6.60
2018-01-03T04:33:53.595Z,6.60
2018-01-03T04:36:21.834Z,6.60
2018-01-03T04:38:49.295Z,6.60
2018-01-03T04:41:16.785Z,6.70
2018-01-03T04:43:45.020Z,7.20
2018-01-03T04:46:12.497Z,7.20
2018-01-03T04:48:39.987Z,7.40
2018-01-03T04:51:08.232Z,7.80
2018-01-03T04:53:35.704Z,7.80
2018-01-03T04:56:03.188Z,8.00
2018-01-03T04:58:30.672Z,8.20
2018-01-03T05:00:58.166Z,8.20
2018-01-03T05:03:25.622Z,8.40
2018-01-03T05:05:53.104Z,8.30
2018-01-03T05:08:21.354Z,8.60
2018-01-03T05:10:49.036Z,8.60
2018-01-03T05:13:17.280Z,8.60
2018-01-03T05:15:44.779Z,8.60
2018-01-03T05:18:13.022Z,8.50
2018-01-03T05:20:40.504Z,8.40
2018-01-03T05:23:08.749Z,8.60
2018-01-03T05:25:36.224Z,8.60
2018-01-03T05:28:05.216Z,8.60
2018-01-03T05:30:32.683Z,8.60
2018-01-03T05:33:00.922Z,8.80
2018-01-03T05:35:28.408Z,8.70
2018-01-03T05:37:55.871Z,8.70
2018-01-03T05:40:23.352Z,8.70
2018-01-03T05:42:51.579Z,8.80
2018-01-03T05:45:19.076Z,8.80
2018-01-03T05:47:50.279Z,8.90
2018-01-03T05:50:17.749Z,8.90
2018-01-03T05:52:45.219Z,9.00
2018-01-03T05:55:12.696Z,9.10
2018-01-03T05:57:40.952Z,9.10
2018-01-03T06:00:09.191Z,9.00
2018-01-03T06:02:36.665Z,9.00
2018-01-03T06:05:04.139Z,9.10
2018-01-03T06:07:31.707Z,9.20
2018-01-03T06:10:00.688Z,9.30
2018-01-03T06:12:28.171Z,9.30
2018-01-03T06:14:56.400Z,9.40
2018-01-03T06:17:23.876Z,9.40
2018-01-03T06:19:51.355Z,9.30
2018-01-03T06:22:19.587Z,9.30
2018-01-03T06:24:47.076Z,9.30
2018-01-03T06:27:14.536Z,9.20
2018-01-03T06:29:42.787Z,9.20
2018-01-03T06:32:10.252Z,9.20
2018-01-03T06:34:37.738Z,9.30
2018-01-03T06:37:06.000Z,9.60
2018-01-03T06:39:33.467Z,9.50
2018-01-03T06:42:01.724Z,9.60
2018-01-03T06:44:29.208Z,9.60
2018-01-03T06:46:57.475Z,9.80
2018-01-03T06:49:25.702Z,9.70
2018-01-03T06:51:53.187Z,9.70
2018-01-03T06:54:20.647Z,9.70
2018-01-03T06:56:48.120Z,9.70
2018-01-03T06:59:16.401Z,10.00
2018-01-03T07:01:44.661Z,10.10
2018-01-03T07:04:12.147Z,10.10
2018-01-03T07:06:40.424Z,10.00
2018-01-03T07:09:08.651Z,10.00
2018-01-03T07:11:36.127Z,10.00
2018-01-03T07:14:03.603Z,9.80
2018-01-03T07:16:31.856Z,9.90
2018-01-03T07:18:59.347Z,9.80
2018-01-03T07:21:27.605Z,9.60
2018-01-03T07:23:55.880Z,9.60
2018-01-03T07:26:23.345Z,9.50
2018-01-03T07:28:51.591Z,9.30
2018-01-03T07:31:19.056Z,9.30
2018-01-03T07:33:46.553Z,9.30
2018-01-03T07:36:14.789Z,7.10
2018-01-03T07:38:42.279Z,7.10
2018-01-03T07:41:10.515Z,6.60
2018-01-03T07:43:38.024Z,6.60
2018-01-03T07:46:05.490Z,6.40
2018-01-03T07:48:32.968Z,6.30
2018-01-03T07:51:00.455Z,6.20
2018-01-03T07:53:27.965Z,6.10
2018-01-03T07:56:01.111Z,6.10
2018-01-03T07:58:28.588Z,6.00
2018-01-03T08:00:56.817Z,6.00
2018-01-03T08:03:24.299Z,6.00
2018-01-03T08:05:51.776Z,6.00
2018-01-03T08:08:20.029Z,6.00
2018-01-03T08:10:47.497Z,6.00
2018-01-03T08:13:15.013Z,6.00
2018-01-03T08:15:43.240Z,6.10
2018-01-03T08:18:11.496Z,6.20
2018-01-03T08:20:39.014Z,6.10
2018-01-03T08:23:06.539Z,6.20
2018-01-03T08:25:51.328Z,6.20
2018-01-03T08:28:36.988Z,6.20
2018-01-03T08:31:05.246Z,6.20
2018-01-03T08:33:34.248Z,6.20
2018-01-03T08:36:03.503Z,6.20
2018-01-03T08:38:30.985Z,6.20
2018-01-03T08:40:58.457Z,6.30
2018-01-03T08:43:26.744Z,6.30
2018-01-03T08:45:55.030Z,6.30
2018-01-03T08:48:22.500Z,6.30
2018-01-03T08:50:49.982Z,6.40
2018-01-03T08:53:17.512Z,6.40
2018-01-03T08:55:45.007Z,6.40
2018-01-03T08:58:13.620Z,6.50
2018-01-03T09:00:41.111Z,6.50
2018-01-03T09:03:08.589Z,6.60
2018-01-03T09:05:36.079Z,6.60
2018-01-03T09:08:03.560Z,6.70
2018-01-03T09:10:31.045Z,6.60
2018-01-03T09:12:58.513Z,6.60
2018-01-03T09:15:26.026Z,6.60
2018-01-03T09:17:54.077Z,6.50
2018-01-03T09:20:22.813Z,6.50
2018-01-03T09:22:51.072Z,6.40
2018-01-03T09:25:19.319Z,6.40
2018-01-03T09:27:46.794Z,6.40
2018-01-03T09:30:14.284Z,6.40
2018-01-03T09:32:41.861Z,6.30
2018-01-03T09:35:09.376Z,6.30
2018-01-03T09:37:37.616Z,6.30
2018-01-03T09:40:05.092Z,6.30
2018-01-03T09:42:32.571Z,6.30
2018-01-03T09:45:00.072Z,6.30
2018-01-03T09:47:27.533Z,6.20
2018-01-03T09:49:55.056Z,6.20
2018-01-03T09:52:24.244Z,6.20
2018-01-03T09:54:51.726Z,6.20
2018-01-03T09:57:19.229Z,6.10
2018-01-03T09:59:46.721Z,6.10
2018-01-03T10:02:14.981Z,6.00
2018-01-03T10:04:42.489Z,6.00
2018-01-03T10:07:10.015Z,6.00
2018-01-03T10:09:38.293Z,5.90
2018-01-03T10:12:06.556Z,5.90
2018-01-03T10:14:34.028Z,5.80
2018-01-03T10:17:02.288Z,5.70
2018-01-03T10:19:29.760Z,5.70
2018-01-03T10:21:58.025Z,5.60
2018-01-03T10:24:25.494Z,5.60
2018-01-03T10:26:53.734Z,5.50
2018-01-03T10:29:21.210Z,5.40
2018-01-03T10:31:48.745Z,5.40
2018-01-03T10:34:16.233Z,5.40
2018-01-03T10:36:43.716Z,5.40
2018-01-03T10:39:11.194Z,5.40
2018-01-03T10:41:38.692Z,5.40
2018-01-03T10:44:07.704Z,5.50
2018-01-03T10:46:35.204Z,5.50
2018-01-03T10:49:02.680Z,5.50
2018-01-03T10:51:30.218Z,5.50
2018-01-03T10:53:58.421Z,5.50
2018-01-03T10:56:25.913Z,5.50
2018-01-03T10:58:54.158Z,5.40
2018-01-03T11:01:22.928Z,5.40
2018-01-03T11:03:50.440Z,5.50
2018-01-03T11:06:18.830Z,5.50
2018-01-03T11:08:46.471Z,5.50
2018-01-03T11:11:14.621Z,5.60
2018-01-03T11:13:42.128Z,5.60
2018-01-03T11:16:09.637Z,5.70
2018-01-03T11:18:37.112Z,5.80
2018-01-03T11:21:04.674Z,5.90
2018-01-03T11:23:32.153Z,5.80
2018-01-03T11:28:53.078Z,5.80
2018-01-03T11:31:21.338Z,5.90
2018-01-03T11:33:48.811Z,5.90
2018-01-03T11:36:17.070Z,5.70
2018-01-03T11:38:44.535Z,5.70
2018-01-03T11:41:13.342Z,5.50
2018-01-03T11:43:40.830Z,5.50
2018-01-03T11:46:08.311Z,5.50
2018-01-03T11:48:35.788Z,5.40
2018-01-03T11:51:03.288Z,5.40
2018-01-03T11:53:30.803Z,5.50
2018-01-03T11:55:58.276Z,5.50
2018-01-03T11:58:26.535Z,5.70
2018-01-03T12:00:55.510Z,5.80
2018-01-03T12:03:22.991Z,5.80
2018-01-03T12:05:50.475Z,5.80
2018-01-03T12:08:17.962Z,5.90
2018-01-03T12:10:45.435Z,6.00
2018-01-03T12:13:13.848Z,6.00
2018-01-03T12:15:42.429Z,5.90
2018-01-03T12:18:22.632Z,5.90
2018-01-03T12:20:50.191Z,5.90
2018-01-03T12:23:17.668Z,5.90
2018-01-03T12:25:45.146Z,5.90
2018-01-03T12:28:12.725Z,5.90
2018-01-03T12:30:40.970Z,5.90
2018-01-03T12:33:08.467Z,5.90
2018-01-03T12:35:36.729Z,6.00
2018-01-03T12:38:04.994Z,6.00
2018-01-03T12:40:32.461Z,6.00
2018-01-03T12:43:00.757Z,5.90
2018-01-03T12:45:28.993Z,6.00
2018-01-03T12:47:56.480Z,6.00
2018-01-03T12:50:25.753Z,6.00
2018-01-03T12:52:54.220Z,6.00
2018-01-03T12:55:22.716Z,5.90
2018-01-03T12:57:50.206Z,5.90
2018-01-03T13:00:18.455Z,6.00
2018-01-03T13:02:45.979Z,6.00
2018-01-03T13:05:13.471Z,6.00
2018-01-03T13:07:40.951Z,6.10
2018-01-03T13:10:09.207Z,6.10
2018-01-03T13:12:36.684Z,6.10
2018-01-03T13:15:04.945Z,6.30
2018-01-03T13:17:32.420Z,6.30
2018-01-03T13:20:00.708Z,6.50
2018-01-03T13:22:28.945Z,6.50
2018-01-03T13:24:56.437Z,6.50
2018-01-03T13:27:25.212Z,6.50
2018-01-03T13:29:53.487Z,6.40
2018-01-03T13:32:21.738Z,6.40
2018-01-03T13:34:49.984Z,6.40
2018-01-03T13:37:17.475Z,6.40
2018-01-03T13:39:46.478Z,6.50
2018-01-03T13:42:13.952Z,6.50
2018-01-03T13:44:42.193Z,6.50
2018-01-03T13:47:09.670Z,6.50
2018-01-03T13:49:37.158Z,6.50
2018-01-03T13:52:05.411Z,6.60
2018-01-03T13:54:33.656Z,6.60
2018-01-03T13:57:01.148Z,6.60
2018-01-03T13:59:28.629Z,6.50
2018-01-03T14:01:56.106Z,6.50
2018-01-03T14:04:23.620Z,6.40
2018-01-03T14:06:51.103Z,6.30
2018-01-03T14:09:18.603Z,6.20
2018-01-03T14:11:46.092Z,6.00
2018-01-03T14:14:13.569Z,6.10
2018-01-03T14:16:41.061Z,6.10
2018-01-03T14:19:08.530Z,6.00
2018-01-03T14:21:36.007Z,6.10
2018-01-03T14:24:03.508Z,6.20
2018-01-03T14:26:31.350Z,6.10
2018-01-03T14:28:59.608Z,6.30
2018-01-03T14:31:27.920Z,6.30
2018-01-03T14:33:56.335Z,6.00
2018-01-03T14:36:23.820Z,6.00
2018-01-03T14:38:51.293Z,5.90
2018-01-03T14:41:20.491Z,5.80
2018-01-03T14:43:47.952Z,5.70
2018-01-03T14:46:15.470Z,5.70
2018-01-03T14:48:42.944Z,5.80
2018-01-03T14:51:10.468Z,5.70
2018-01-03T14:53:37.951Z,5.60
2018-01-03T14:56:05.548Z,5.70
2018-01-03T14:58:33.781Z,5.60
2018-01-03T15:01:01.273Z,5.60
2018-01-03T15:03:28.786Z,5.60
2018-01-03T15:05:56.309Z,5.60
2018-01-03T15:08:24.551Z,5.50
2018-01-03T15:10:52.033Z,5.50
2018-01-03T15:13:20.263Z,5.60
2018-01-03T15:15:47.750Z,5.60
2018-01-03T15:21:19.816Z,5.60
2018-01-03T15:23:47.343Z,5.60
2018-01-03T15:26:14.884Z,5.50
2018-01-03T15:28:43.114Z,5.60
2018-01-03T15:31:10.717Z,5.60
2018-01-03T15:33:38.944Z,5.60
2018-01-03T15:36:06.466Z,5.50
2018-01-03T15:38:33.996Z,5.60
2018-01-03T15:41:02.245Z,5.60
2018-01-03T15:43:29.770Z,5.60
2018-01-03T15:45:57.248Z,5.70
2018-01-03T15:48:24.731Z,5.70
2018-01-03T15:50:52.199Z,5.70
2018-01-03T15:53:27.691Z,5.80
2018-01-03T15:55:55.159Z,5.80
2018-01-03T15:58:22.653Z,5.90
2018-01-03T16:00:50.166Z,5.90
2018-01-03T16:03:17.793Z,5.90
2018-01-03T16:05:46.028Z,5.80
2018-01-03T16:08:13.540Z,5.80
2018-01-03T16:13:35.219Z,5.90
2018-01-03T16:16:02.718Z,6.00
2018-01-03T16:18:30.967Z,6.00
2018-01-03T16:20:59.365Z,6.00
2018-01-03T16:23:27.675Z,6.00
2018-01-03T16:25:55.929Z,6.00
2018-01-03T16:28:24.354Z,6.00
2018-01-03T16:30:51.823Z,6.00
2018-01-03T16:33:19.303Z,6.10
2018-01-03T16:38:40.625Z,6.00
2018-01-03T16:41:08.102Z,6.00
2018-01-03T16:43:36.265Z,6.00
2018-01-03T16:46:03.742Z,6.10
2018-01-03T16:48:32.002Z,6.00
2018-01-03T16:50:59.475Z,6.00
2018-01-03T16:53:26.965Z,6.10
2018-01-03T16:55:54.853Z,6.00
2018-01-03T16:58:46.015Z,6.00
2018-01-03T17:01:13.487Z,6.00
2018-01-03T17:03:41.727Z,6.10
2018-01-03T17:06:22.527Z,6.10
2018-01-03T17:08:50.844Z,6.10
2018-01-03T17:11:18.357Z,6.00
2018-01-03T17:13:47.143Z,6.00
2018-01-03T17:16:14.709Z,6.00
2018-01-03T17:18:42.964Z,5.90
2018-01-03T17:21:10.443Z,5.90
2018-01-03T17:23:38.701Z,5.80
2018-01-03T17:26:06.320Z,5.80
2018-01-03T17:28:33.879Z,5.80
2018-01-03T17:31:01.438Z,5.80
2018-01-03T17:33:28.935Z,5.90
2018-01-03T17:35:56.466Z,5.80
2018-01-03T17:38:23.943Z,5.90
2018-01-03T17:40:51.570Z,5.90
2018-01-03T17:43:19.059Z,5.90
2018-01-03T17:45:46.528Z,5.80
2018-01-03T17:48:15.046Z,5.80
2018-01-03T17:50:42.568Z,5.80
2018-01-03T17:53:10.942Z,5.80
2018-01-03T17:55:38.408Z,5.80
2018-01-03T17:58:05.899Z,5.80
2018-01-03T18:00:33.400Z,5.90
2018-01-03T18:03:00.882Z,6.00
2018-01-03T18:05:28.419Z,6.00
2018-01-03T18:07:56.696Z,5.90
2018-01-03T18:10:24.259Z,6.00
2018-01-03T18:12:51.740Z,5.90
2018-01-03T18:15:19.275Z,5.90
2018-01-03T18:17:46.790Z,5.80
2018-01-03T18:20:14.349Z,5.90
2018-01-03T18:22:41.893Z,6.00
2018-01-03T18:25:10.204Z,5.90
2018-01-03T18:27:37.759Z,5.90
2018-01-03T18:30:05.297Z,5.90
2018-01-03T18:32:32.822Z,5.90
2018-01-03T18:35:00.362Z,5.80
2018-01-03T18:37:27.910Z,6.00
2018-01-03T18:39:55.447Z,5.90
2018-01-03T18:42:23.784Z,6.00
2018-01-03T18:44:51.330Z,6.10
2018-01-03T18:47:18.838Z,6.10
2018-01-03T18:49:47.210Z,6.10
2018-01-03T18:52:14.759Z,6.10
2018-01-03T18:54:43.059Z,6.10
2018-01-03T18:57:10.566Z,6.10
2018-01-03T18:59:38.081Z,6.10
2018-01-03T19:02:06.624Z,6.10
2018-01-03T19:04:35.528Z,6.00
2018-01-03T19:07:05.955Z,6.10
2018-01-03T19:09:34.257Z,6.10
2018-01-03T19:12:02.648Z,6.10
2018-01-03T19:14:30.212Z,6.00
2018-01-03T19:16:58.514Z,6.00
2018-01-03T19:19:26.030Z,6.00
2018-01-03T19:21:53.544Z,6.00
2018-01-03T19:24:21.087Z,5.90
2018-01-03T19:26:48.607Z,5.90
2018-01-03T19:29:16.894Z,5.80
2018-01-03T19:31:44.594Z,5.80
2018-01-03T19:34:13.615Z,5.70
2018-01-03T19:36:41.931Z,5.70
2018-01-03T19:39:09.474Z,5.70
2018-01-03T19:44:11.814Z,5.60
2018-01-03T19:46:39.352Z,5.70
2018-01-03T19:49:06.867Z,5.60
2018-01-03T19:51:34.428Z,5.60
2018-01-03T19:54:01.970Z,5.60
2018-01-03T19:56:30.271Z,5.60
2018-01-03T19:58:57.782Z,5.60
2018-01-03T20:01:25.316Z,5.60
2018-01-03T20:03:53.613Z,5.70
2018-01-03T20:06:22.117Z,5.70
2018-01-03T20:08:49.642Z,5.70
2018-01-03T20:11:17.175Z,5.70
2018-01-03T20:13:45.428Z,5.70
2018-01-03T20:16:13.734Z,5.70
2018-01-03T20:18:42.035Z,5.70
2018-01-03T20:21:09.564Z,5.70
2018-01-03T20:23:37.086Z,5.70
2018-01-03T20:26:05.386Z,5.70
2018-01-03T20:28:32.902Z,5.70
2018-01-03T20:31:00.447Z,5.70
2018-01-03T20:33:27.970Z,5.60
2018-01-03T20:35:56.378Z,5.70
2018-01-03T20:38:23.914Z,5.70
2018-01-03T20:40:52.209Z,5.80
2018-01-03T20:43:19.761Z,5.80
2018-01-03T20:45:47.295Z,5.80
2018-01-03T20:48:14.928Z,5.80
2018-01-03T20:50:44.170Z,5.90
2018-01-03T20:53:11.698Z,5.80
2018-01-03T20:55:40.007Z,5.90
2018-01-03T20:58:07.548Z,5.90
2018-01-03T21:00:35.077Z,5.90
2018-01-03T21:03:02.612Z,5.90
2018-01-03T21:05:30.155Z,5.90
2018-01-03T21:07:57.689Z,5.90
2018-01-03T21:10:25.226Z,5.90
2018-01-03T21:12:53.533Z,5.80
2018-01-03T21:15:21.205Z,5.80
2018-01-03T21:17:48.727Z,5.80
2018-01-03T21:20:17.027Z,5.80
2018-01-03T21:22:44.583Z,5.80
2018-01-03T21:25:12.101Z,5.80
2018-01-03T21:27:39.633Z,5.80
2018-01-03T21:30:07.161Z,5.70
2018-01-03T21:32:34.715Z,5.70
2018-01-03T21:35:02.235Z,5.70
2018-01-03T21:37:29.760Z,5.70
2018-01-03T21:39:57.328Z,5.70
2018-01-03T21:42:24.899Z,5.60
2018-01-03T21:44:52.421Z,5.60
2018-01-03T21:47:19.961Z,5.60
2018-01-03T21:49:48.282Z,5.60
2018-01-03T21:52:15.877Z,5.50
2018-01-03T21:54:43.394Z,5.60
2018-01-03T21:57:10.931Z,5.50
2018-01-03T21:59:41.295Z,5.50
2018-01-03T22:02:09.610Z,5.60
2018-01-03T22:04:38.871Z,5.60
2018-01-03T22:07:07.438Z,5.60
2018-01-03T22:09:34.971Z,5.50
2018-01-03T22:12:02.540Z,5.50
2018-01-03T22:14:30.106Z,5.50
2018-01-03T22:16:57.932Z,5.40
2018-01-03T22:19:26.213Z,5.50
2018-01-03T22:21:55.307Z,5.40
2018-01-03T22:24:23.603Z,5.40
2018-01-03T22:26:51.122Z,5.30
2018-01-03T22:29:18.691Z,5.30
2018-01-03T22:31:46.217Z,5.30
2018-01-03T22:34:13.777Z,5.20
2018-01-03T22:36:41.312Z,5.20
2018-01-03T22:39:09.643Z,5.20
2018-01-03T22:41:37.184Z,5.20
2018-01-03T22:44:04.716Z,5.10
2018-01-03T22:46:32.237Z,5.10
2018-01-03T22:49:00.521Z,5.10
2018-01-03T22:51:28.806Z,5.10
2018-01-03T22:53:56.343Z,5.10
2018-01-03T22:56:24.638Z,5.10
2018-01-03T22:58:52.172Z,5.10
2018-01-03T23:01:19.689Z,5.10
2018-01-03T23:03:47.221Z,5.10
2018-01-03T23:06:14.730Z,5.00
2018-01-03T23:08:42.279Z,5.00
2018-01-03T23:11:09.794Z,4.90
2018-01-03T23:13:37.327Z,4.90
2018-01-03T23:16:05.625Z,4.90
2018-01-03T23:18:33.158Z,4.80
2018-01-03T23:21:00.713Z,4.90
2018-01-03T23:23:28.736Z,4.90
2018-01-03T23:25:56.274Z,4.90
2018-01-03T23:28:23.847Z,4.90
2018-01-03T23:30:51.382Z,4.90
2018-01-03T23:33:19.699Z,4.90
2018-01-03T23:35:47.231Z,4.90
2018-01-03T23:38:14.761Z,5.00
2018-01-03T23:40:43.061Z,5.00
2018-01-03T23:43:11.356Z,4.90
2018-01-03T23:45:38.900Z,4.90
2018-01-03T23:48:06.422Z,5.00
2018-01-03T23:50:35.461Z,5.00
2018-01-03T23:53:02.942Z,5.00
2018-01-03T23:55:30.859Z,5.00
2018-01-03T23:57:59.142Z,5.00
